createdAt,value
2019-04-20T00:00:43.006Z,7.97
2019-04-20T00:03:10.208Z,8.13
2019-04-20T00:05:39.231Z,8.77
2019-04-20T00:08:15.923Z,9.40
2019-04-20T00:10:49.648Z,16.77
2019-04-20T00:13:21.585Z,7.53
2019-04-20T00:15:39.321Z,10.77
2019-04-20T00:18:09.889Z,8.03
2019-04-20T00:20:42.120Z,8.70
2019-04-20T00:23:22.638Z,9.13
2019-04-20T00:26:51.109Z,9.63
2019-04-20T00:29:10.260Z,7.50
2019-04-20T00:31:40.307Z,10.80
2019-04-20T00:34:04.590Z,8.40
2019-04-20T00:36:27.141Z,10.40
2019-04-20T00:38:59.749Z,9.77
2019-04-20T00:41:27.587Z,10.33
2019-04-20T00:43:57.756Z,9.80
2019-04-20T00:46:34.033Z,10.03
2019-04-20T00:49:09.993Z,9.90
2019-04-20T00:51:46.631Z,11.33
2019-04-20T00:54:00.111Z,10.27
2019-04-20T00:56:28.847Z,13.33
2019-04-20T00:59:08.343Z,11.60
2019-04-20T01:01:48.939Z,12.53
2019-04-20T01:04:30.067Z,10.57
2019-04-20T01:07:06.283Z,11.23
2019-04-20T01:09:26.509Z,11.03
2019-04-20T01:11:56.494Z,12.53
2019-04-20T01:14:34.143Z,12.67
2019-04-20T01:17:02.009Z,11.40
2019-04-20T01:19:26.386Z,10.97
2019-04-20T01:22:01.514Z,10.67
2019-04-20T01:24:33.062Z,11.40
2019-04-20T01:27:00.418Z,12.17
2019-04-20T01:29:38.401Z,12.07
2019-04-20T01:32:10.479Z,13.93
2019-04-20T01:34:41.738Z,12.97
2019-04-20T01:37:14.718Z,13.57
2019-04-20T01:39:35.475Z,14.13
2019-04-20T01:41:58.792Z,12.40
2019-04-20T01:44:35.396Z,12.33
2019-04-20T01:47:01.510Z,14.83
2019-04-20T01:49:32.444Z,12.80
2019-04-20T01:52:09.608Z,15.53
2019-04-20T01:54:51.129Z,13.53
2019-04-20T01:57:27.201Z,13.40
2019-04-20T02:00:18.184Z,13.00
2019-04-20T02:02:53.697Z,13.20
2019-04-20T02:05:24.697Z,12.43
2019-04-20T02:07:52.400Z,13.70
2019-04-20T02:10:21.882Z,13.13
2019-04-20T02:12:55.639Z,14.27
2019-04-20T02:15:31.008Z,13.27
2019-04-20T02:18:03.298Z,13.27
2019-04-20T02:20:37.575Z,16.97
2019-04-20T02:23:09.382Z,17.27
2019-04-20T02:25:22.745Z,15.30
2019-04-20T02:27:55.372Z,13.97
2019-04-20T02:30:58.038Z,14.37
2019-04-20T02:33:40.153Z,13.77
2019-04-20T02:39:21.996Z,20.23
2019-04-20T02:44:24.061Z,13.47
2019-04-20T02:46:38.479Z,14.27
2019-04-20T02:49:10.057Z,15.53
2019-04-20T02:51:41.960Z,15.00
2019-04-20T02:54:16.647Z,14.13
2019-04-20T02:56:39.851Z,15.83
2019-04-20T02:59:44.665Z,16.70
2019-04-20T03:01:37.634Z,21.17
2019-04-20T03:03:52.692Z,16.43
2019-04-20T03:06:30.779Z,17.93
2019-04-20T03:09:09.106Z,13.37
2019-04-20T03:11:51.448Z,16.00
2019-04-20T03:14:10.617Z,11.87
2019-04-20T03:16:35.626Z,11.83
2019-04-20T03:19:06.787Z,12.20
2019-04-20T03:21:45.368Z,11.50
2019-04-20T03:24:22.926Z,10.67
2019-04-20T03:27:02.871Z,12.07
2019-04-20T03:29:56.674Z,12.40
2019-04-20T03:33:04.404Z,12.53
2019-04-20T03:35:12.210Z,11.20
2019-04-20T03:37:45.201Z,13.37
2019-04-20T03:40:06.871Z,12.13
2019-04-20T03:42:20.235Z,10.73
2019-04-20T03:44:56.476Z,11.13
2019-04-20T03:47:35.083Z,11.83
2019-04-20T03:50:14.788Z,12.17
2019-04-20T03:52:44.938Z,12.37
2019-04-20T03:55:41.964Z,9.90
2019-04-20T03:58:33.502Z,13.33
2019-04-20T04:01:43.359Z,12.87
2019-04-20T04:04:10.532Z,11.90
2019-04-20T04:06:32.840Z,13.63
2019-04-20T04:09:02.713Z,14.40
2019-04-20T04:11:38.112Z,17.43
2019-04-20T04:13:50.988Z,15.17
2019-04-20T04:16:22.018Z,19.97
2019-04-20T04:19:01.575Z,14.50
2019-04-20T04:21:36.954Z,13.57
2019-04-20T04:24:07.300Z,15.33
2019-04-20T04:26:34.089Z,15.33
2019-04-20T04:29:12.674Z,13.10
2019-04-20T04:31:50.566Z,13.73
2019-04-20T04:34:10.785Z,13.13
2019-04-20T04:36:46.216Z,13.83
2019-04-20T04:39:19.247Z,11.93
2019-04-20T04:41:42.323Z,13.87
2019-04-20T04:44:11.155Z,12.53
2019-04-20T04:46:24.986Z,10.07
2019-04-20T04:49:03.864Z,8.87
2019-04-20T04:51:29.649Z,11.23
2019-04-20T04:54:01.826Z,10.77
2019-04-20T04:56:26.822Z,9.73
2019-04-20T04:58:56.181Z,13.00
2019-04-20T05:01:28.795Z,10.53
2019-04-20T05:06:39.372Z,13.13
2019-04-20T05:09:00.748Z,12.23
2019-04-20T05:11:27.969Z,12.37
2019-04-20T05:14:02.074Z,16.73
2019-04-20T05:16:45.049Z,12.80
2019-04-20T05:19:21.951Z,15.97
2019-04-20T05:22:24.730Z,15.93
2019-04-20T05:25:04.693Z,17.47
2019-04-20T05:27:46.570Z,16.40
2019-04-20T05:29:54.996Z,18.00
2019-04-20T05:32:37.460Z,17.57
2019-04-20T05:35:19.711Z,16.93
2019-04-20T05:37:49.879Z,11.80
2019-04-20T05:40:16.551Z,10.37
2019-04-20T05:42:52.353Z,11.50
2019-04-20T05:45:20.637Z,11.97
2019-04-20T05:47:55.136Z,12.00
2019-04-20T05:50:28.950Z,10.17
2019-04-20T05:53:02.400Z,11.13
2019-04-20T05:55:25.514Z,10.27
2019-04-20T05:58:03.487Z,8.97
2019-04-20T06:00:37.446Z,9.33
2019-04-20T06:03:00.482Z,10.47
2019-04-20T06:05:38.883Z,10.03
2019-04-20T06:07:59.161Z,9.73
2019-04-20T06:10:41.799Z,10.90
2019-04-20T06:13:04.432Z,10.07
2019-04-20T06:15:42.086Z,10.13
2019-04-20T06:18:13.607Z,9.13
2019-04-20T06:20:47.799Z,10.93
2019-04-20T06:23:53.140Z,10.67
2019-04-20T06:26:40.165Z,11.70
2019-04-20T06:28:42.927Z,11.13
2019-04-20T06:31:23.937Z,11.50
2019-04-20T06:39:20.006Z,8.67
2019-04-20T06:44:24.417Z,8.47
2019-04-20T06:46:58.860Z,7.30
2019-04-20T06:51:59.382Z,10.60
2019-04-20T06:54:25.596Z,8.93
2019-04-20T06:57:05.869Z,10.17
2019-04-20T06:59:39.285Z,8.73
2019-04-20T07:02:11.207Z,9.67
2019-04-20T07:04:43.109Z,9.40
2019-04-20T07:07:10.968Z,7.40
2019-04-20T07:09:46.432Z,8.27
2019-04-20T07:12:03.009Z,9.37
2019-04-20T07:14:31.438Z,9.17
2019-04-20T07:17:39.422Z,9.63
2019-04-20T07:20:04.108Z,8.97
2019-04-20T07:23:03.550Z,8.10
2019-04-20T07:25:20.310Z,10.33
2019-04-20T07:27:53.632Z,8.63
2019-04-20T07:30:16.473Z,8.20
2019-04-20T07:35:22.094Z,9.43
2019-04-20T07:42:55.363Z,9.23
2019-04-20T07:48:04.131Z,10.83
2019-04-20T07:50:22.866Z,11.67
2019-04-20T07:52:46.542Z,10.83
2019-04-20T07:57:50.067Z,8.07
2019-04-20T08:00:41.519Z,10.57
2019-04-20T08:03:45.906Z,11.63
2019-04-20T08:06:11.581Z,11.90
2019-04-20T08:08:50.453Z,8.43
2019-04-20T08:11:21.137Z,7.90
2019-04-20T08:14:02.010Z,10.27
2019-04-20T08:16:44.010Z,10.20
2019-04-20T08:18:55.505Z,9.97
2019-04-20T08:21:31.105Z,10.67
2019-04-20T08:23:57.019Z,8.20
2019-04-20T08:26:16.186Z,9.07
2019-04-20T08:28:54.588Z,9.83
2019-04-20T08:31:55.887Z,11.40
2019-04-20T08:34:39.701Z,7.60
2019-04-20T08:37:03.253Z,10.60
2019-04-20T08:42:03.046Z,7.13
2019-04-20T08:47:12.268Z,6.30
2019-04-20T08:49:36.545Z,7.03
2019-04-20T08:52:12.360Z,6.67
2019-04-20T08:54:31.288Z,8.43
2019-04-20T08:56:51.704Z,6.90
2019-04-20T08:59:14.880Z,8.20
2019-04-20T09:01:44.638Z,9.37
2019-04-20T09:04:22.214Z,6.93
2019-04-20T09:06:58.403Z,6.97
2019-04-20T09:09:45.575Z,7.40
2019-04-20T09:12:00.860Z,6.87
2019-04-20T09:14:20.883Z,12.40
2019-04-20T09:16:59.838Z,10.73
2019-04-20T09:19:36.713Z,8.43
2019-04-20T09:22:24.337Z,8.83
2019-04-20T09:25:13.347Z,8.77
2019-04-20T09:27:26.996Z,9.43
2019-04-20T09:30:07.788Z,8.10
2019-04-20T09:32:34.351Z,9.90
2019-04-20T09:35:06.617Z,10.00
2019-04-20T09:37:53.167Z,8.30
2019-04-20T09:40:35.536Z,7.97
2019-04-20T09:43:15.890Z,8.50
2019-04-20T09:45:49.039Z,10.33
2019-04-20T09:48:25.294Z,9.00
2019-04-20T09:51:02.305Z,7.20
2019-04-20T09:53:29.921Z,7.63
2019-04-20T09:56:08.771Z,8.10
2019-04-20T09:58:29.011Z,8.53
2019-04-20T10:01:03.339Z,7.90
2019-04-20T10:03:19.007Z,8.17
2019-04-20T10:05:47.626Z,6.77
2019-04-20T10:08:17.520Z,8.10
2019-04-20T10:10:47.667Z,7.87
2019-04-20T10:13:17.459Z,9.07
2019-04-20T10:15:46.007Z,8.37
2019-04-20T10:18:14.653Z,8.27
2019-04-20T10:20:44.071Z,8.50
2019-04-20T10:23:14.346Z,7.27
2019-04-20T10:25:43.070Z,7.37
2019-04-20T10:28:11.905Z,10.27
2019-04-20T10:30:40.869Z,8.63
2019-04-20T10:33:09.993Z,8.37
2019-04-20T10:35:39.435Z,7.30
2019-04-20T10:38:15.795Z,9.50
2019-04-20T10:40:56.207Z,8.37
2019-04-20T10:43:16.219Z,7.77
2019-04-20T10:45:44.913Z,7.33
2019-04-20T10:48:13.561Z,7.33
2019-04-20T10:50:43.097Z,8.27
2019-04-20T10:53:12.157Z,7.83
2019-04-20T10:55:40.648Z,11.67
2019-04-20T10:58:09.441Z,10.17
2019-04-20T11:00:43.830Z,7.77
2019-04-20T11:03:13.836Z,8.13
2019-04-20T11:05:44.506Z,8.10
2019-04-20T11:08:13.231Z,9.37
2019-04-20T11:10:55.484Z,6.87
2019-04-20T11:13:13.070Z,6.77
2019-04-20T11:15:42.214Z,7.00
2019-04-20T11:18:11.412Z,7.87
2019-04-20T11:20:41.379Z,8.70
2019-04-20T11:23:10.779Z,6.17
2019-04-20T11:25:40.040Z,10.03
2019-04-20T11:28:08.627Z,6.10
2019-04-20T11:30:38.330Z,7.23
2019-04-20T11:33:07.135Z,6.83
2019-04-20T11:35:39.227Z,6.50
2019-04-20T11:38:07.368Z,8.97
2019-04-20T11:40:37.030Z,9.93
2019-04-20T11:43:05.889Z,6.43
2019-04-20T11:45:34.384Z,8.50
2019-04-20T11:48:03.330Z,7.87
2019-04-20T11:50:31.912Z,6.30
2019-04-20T11:53:01.531Z,6.47
2019-04-20T11:55:30.713Z,5.23
2019-04-20T11:57:59.450Z,5.27
2019-04-20T12:00:50.263Z,6.27
2019-04-20T12:03:23.335Z,5.80
2019-04-20T12:05:53.226Z,7.93
2019-04-20T12:08:18.477Z,6.17
2019-04-20T12:10:51.387Z,6.60
2019-04-20T12:13:18.545Z,5.53
2019-04-20T12:15:47.812Z,5.83
2019-04-20T12:18:17.920Z,4.93
2019-04-20T12:20:47.096Z,8.37
2019-04-20T12:23:16.134Z,5.60
2019-04-20T12:25:45.022Z,4.87
2019-04-20T12:28:15.741Z,4.90
2019-04-20T12:30:45.733Z,4.83
2019-04-20T12:33:15.610Z,5.00
2019-04-20T12:35:44.532Z,6.63
2019-04-20T12:38:13.195Z,6.33
2019-04-20T12:40:42.048Z,5.67
2019-04-20T12:43:11.084Z,4.70
2019-04-20T12:45:40.039Z,5.23
2019-04-20T12:48:08.683Z,5.87
2019-04-20T12:50:37.490Z,5.30
2019-04-20T12:53:06.513Z,8.17
2019-04-20T12:55:35.191Z,7.87
2019-04-20T12:58:04.910Z,7.13
2019-04-20T13:00:45.909Z,6.60
2019-04-20T13:03:15.040Z,7.77
2019-04-20T13:05:43.962Z,6.73
2019-04-20T13:08:13.738Z,7.33
2019-04-20T13:10:46.610Z,9.27
2019-04-20T13:13:32.493Z,10.33
2019-04-20T13:16:06.499Z,7.57
2019-04-20T13:18:47.509Z,7.40
2019-04-20T13:21:16.723Z,6.87
2019-04-20T13:23:45.411Z,9.13
2019-04-20T13:26:15.516Z,6.57
2019-04-20T13:28:44.180Z,6.10
2019-04-20T13:31:13.619Z,5.60
2019-04-20T13:33:43.247Z,5.13
2019-04-20T13:36:12.494Z,7.77
2019-04-20T13:38:41.170Z,5.70
2019-04-20T13:41:09.739Z,7.10
2019-04-20T13:43:39.627Z,5.30
2019-04-20T13:46:09.128Z,6.50
2019-04-20T13:48:39.059Z,5.07
2019-04-20T13:51:07.957Z,6.17
2019-04-20T13:53:37.121Z,5.77
2019-04-20T13:56:05.918Z,6.43
2019-04-20T13:59:01.820Z,5.67
2019-04-20T14:02:08.887Z,5.20
2019-04-20T14:04:52.926Z,6.67
2019-04-20T14:07:23.835Z,5.17
2019-04-20T14:09:53.462Z,5.80
2019-04-20T14:12:29.638Z,5.83
2019-04-20T14:14:53.137Z,7.63
2019-04-20T14:17:23.308Z,5.40
2019-04-20T14:19:53.062Z,4.80
2019-04-20T14:22:22.953Z,7.20
2019-04-20T14:24:53.115Z,5.70
2019-04-20T14:27:21.841Z,5.77
2019-04-20T14:29:50.909Z,6.77
2019-04-20T14:32:20.868Z,6.23
2019-04-20T14:34:49.558Z,6.67
2019-04-20T14:37:18.247Z,6.70
2019-04-20T14:39:48.062Z,5.83
2019-04-20T14:42:26.910Z,8.17
2019-04-20T14:44:47.893Z,8.43
2019-04-20T14:47:16.531Z,9.27
2019-04-20T14:49:46.427Z,9.23
2019-04-20T14:52:15.534Z,7.47
2019-04-20T14:54:45.571Z,8.37
2019-04-20T14:57:14.355Z,5.60
2019-04-20T14:59:47.504Z,6.73
2019-04-20T15:02:19.447Z,8.67
2019-04-20T15:04:50.340Z,6.53
2019-04-20T15:07:18.867Z,8.27
2019-04-20T15:09:48.723Z,10.23
2019-04-20T15:12:18.963Z,7.97
2019-04-20T15:14:47.613Z,9.63
2019-04-20T15:17:27.813Z,10.40
2019-04-20T15:20:07.461Z,8.77
2019-04-20T15:22:45.482Z,8.70
2019-04-20T15:25:14.242Z,8.57
2019-04-20T15:27:45.974Z,7.00
2019-04-20T15:30:14.267Z,6.40
2019-04-20T15:32:43.131Z,7.30
2019-04-20T15:35:13.169Z,8.10
2019-04-20T15:37:42.519Z,6.57
2019-04-20T15:40:11.326Z,9.33
2019-04-20T15:42:51.488Z,7.77
2019-04-20T15:45:11.417Z,9.53
2019-04-20T15:47:40.530Z,8.77
2019-04-20T15:50:09.683Z,7.50
2019-04-20T15:52:44.693Z,7.30
2019-04-20T15:55:19.525Z,6.67
2019-04-20T15:57:40.703Z,6.20
2019-04-20T16:00:10.886Z,6.20
2019-04-20T16:02:49.503Z,5.93
2019-04-20T16:05:49.581Z,5.87
2019-04-20T16:08:30.267Z,6.73
2019-04-20T16:10:59.437Z,6.30
2019-04-20T16:13:36.132Z,7.00
2019-04-20T16:15:58.660Z,7.97
2019-04-20T16:18:27.488Z,6.97
2019-04-20T16:21:05.560Z,6.43
2019-04-20T16:23:28.315Z,6.37
2019-04-20T16:26:19.842Z,6.27
2019-04-20T16:28:49.996Z,7.80
2019-04-20T16:31:18.704Z,5.87
2019-04-20T16:33:48.854Z,8.67
2019-04-20T16:36:18.645Z,8.03
2019-04-20T16:38:47.748Z,7.53
2019-04-20T16:41:18.195Z,9.70
2019-04-20T16:43:48.582Z,10.20
2019-04-20T16:46:20.266Z,10.30
2019-04-20T16:48:48.437Z,10.73
2019-04-20T16:51:17.015Z,9.20
2019-04-20T16:53:45.759Z,10.00
2019-04-20T16:56:16.073Z,8.20
2019-04-20T16:58:49.595Z,6.57
2019-04-20T17:01:15.232Z,9.50
2019-04-20T17:03:53.341Z,7.70
2019-04-20T17:06:14.371Z,9.77
2019-04-20T17:08:44.475Z,8.70
2019-04-20T17:11:13.869Z,11.70
2019-04-20T17:13:49.446Z,11.80
2019-04-20T17:16:13.482Z,10.70
2019-04-20T17:18:47.904Z,12.90
2019-04-20T17:21:22.772Z,10.27
2019-04-20T17:23:47.094Z,11.97
2019-04-20T17:26:25.181Z,12.43
2019-04-20T17:29:18.080Z,15.17
2019-04-20T17:32:09.730Z,17.00
2019-04-20T17:34:55.845Z,16.57
2019-04-20T17:37:08.892Z,15.97
2019-04-20T17:40:01.977Z,12.53
2019-04-20T17:42:26.455Z,14.90
2019-04-20T17:44:51.884Z,16.67
2019-04-20T17:47:28.865Z,13.60
2019-04-20T17:49:59.742Z,13.50
2019-04-20T17:52:37.111Z,13.00
2019-04-20T17:54:49.638Z,15.33
2019-04-20T17:57:19.437Z,17.50
2019-04-20T17:59:59.610Z,15.60
2019-04-20T18:02:48.704Z,16.83
2019-04-20T18:05:32.752Z,14.50
2019-04-20T18:08:04.161Z,21.47
2019-04-20T18:10:30.268Z,22.03
2019-04-20T18:12:49.757Z,22.60
2019-04-20T18:15:31.283Z,25.00
2019-04-20T18:18:18.978Z,26.33
2019-04-20T18:20:48.592Z,25.43
2019-04-20T18:23:25.475Z,26.50
2019-04-20T18:26:23.947Z,28.57
2019-04-20T18:28:32.372Z,32.63
2019-04-20T18:31:21.648Z,34.07
2019-04-20T18:33:54.111Z,33.87
2019-04-20T18:36:29.074Z,34.23
2019-04-20T18:38:59.504Z,26.37
2019-04-20T18:41:37.179Z,24.03
2019-04-20T18:43:58.814Z,26.00
2019-04-20T18:46:49.366Z,25.10
2019-04-20T18:49:13.613Z,25.67
2019-04-20T18:51:26.047Z,27.23
2019-04-20T18:53:55.650Z,26.80
2019-04-20T18:56:31.333Z,27.57
2019-04-20T18:58:56.628Z,29.50
2019-04-20T19:01:30.901Z,27.47
2019-04-20T19:03:57.242Z,26.23
2019-04-20T19:06:26.058Z,28.70
2019-04-20T19:08:55.927Z,21.97
2019-04-20T19:11:26.716Z,19.17
2019-04-20T19:14:28.538Z,22.20
2019-04-20T19:17:05.607Z,23.13
2019-04-20T19:19:37.455Z,21.03
2019-04-20T19:22:00.162Z,21.27
2019-04-20T19:24:32.727Z,23.13
2019-04-20T19:27:03.588Z,21.93
2019-04-20T19:29:35.226Z,19.07
2019-04-20T19:32:20.699Z,16.67
2019-04-20T19:34:45.034Z,18.00
2019-04-20T19:37:14.303Z,22.37
2019-04-20T19:39:47.187Z,18.00
2019-04-20T19:42:19.758Z,19.03
2019-04-20T19:44:44.954Z,19.07
2019-04-20T19:47:20.950Z,17.70
2019-04-20T19:49:44.357Z,19.07
2019-04-20T19:52:30.996Z,20.73
2019-04-20T19:54:50.707Z,20.90
2019-04-20T19:57:22.524Z,19.17
2019-04-20T19:59:40.493Z,22.07
2019-04-20T20:02:07.638Z,21.30
2019-04-20T20:04:42.633Z,16.90
2019-04-20T20:07:17.377Z,16.33
2019-04-20T20:09:45.569Z,17.23
2019-04-20T20:12:12.520Z,19.30
2019-04-20T20:14:43.138Z,17.53
2019-04-20T20:17:32.694Z,16.93
2019-04-20T20:20:13.001Z,17.47
2019-04-20T20:22:21.595Z,23.97
2019-04-20T20:24:41.040Z,13.47
2019-04-20T20:27:20.758Z,14.73
2019-04-20T20:29:52.154Z,16.07
2019-04-20T20:32:23.453Z,15.07
2019-04-20T20:34:44.058Z,16.03
2019-04-20T20:37:18.073Z,13.07
2019-04-20T20:39:53.822Z,15.40
2019-04-20T20:42:28.188Z,11.83
2019-04-20T20:44:52.327Z,12.70
2019-04-20T20:47:37.288Z,15.03
2019-04-20T20:50:08.581Z,15.33
2019-04-20T20:52:33.381Z,14.13
2019-04-20T20:54:56.320Z,14.63
2019-04-20T20:57:20.693Z,14.20
2019-04-20T20:59:55.506Z,15.13
2019-04-20T21:02:22.477Z,13.70
2019-04-20T21:04:47.850Z,12.50
2019-04-20T21:07:16.561Z,14.10
2019-04-20T21:09:46.109Z,12.20
2019-04-20T21:12:16.882Z,14.13
2019-04-20T21:14:46.858Z,15.73
2019-04-20T21:17:18.342Z,16.30
2019-04-20T21:20:04.828Z,15.50
2019-04-20T21:22:27.270Z,15.03
2019-04-20T21:24:51.072Z,15.87
2019-04-20T21:27:22.011Z,12.43
2019-04-20T21:29:53.365Z,11.50
2019-04-20T21:32:23.344Z,12.13
2019-04-20T21:34:55.679Z,11.97
2019-04-20T21:37:24.961Z,12.17
2019-04-20T21:39:59.052Z,12.90
2019-04-20T21:42:25.239Z,13.57
2019-04-20T21:45:04.419Z,13.00
2019-04-20T21:47:30.458Z,16.47
2019-04-20T21:50:09.811Z,17.27
2019-04-20T21:52:32.334Z,17.63
2019-04-20T21:54:56.173Z,15.97
2019-04-20T21:57:26.006Z,13.93
2019-04-20T22:00:02.648Z,17.53
2019-04-20T22:02:30.690Z,13.57
2019-04-20T22:04:57.310Z,14.27
2019-04-20T22:07:26.333Z,16.13
2019-04-20T22:09:56.727Z,16.73
2019-04-20T22:12:28.380Z,17.00
2019-04-20T22:15:02.893Z,15.07
2019-04-20T22:17:29.422Z,13.47
2019-04-20T22:20:10.259Z,14.53
2019-04-20T22:22:42.394Z,13.53
2019-04-20T22:25:11.880Z,12.37
2019-04-20T22:27:31.850Z,11.10
2019-04-20T22:29:58.073Z,15.93
2019-04-20T22:32:28.010Z,13.93
2019-04-20T22:35:03.037Z,13.93
2019-04-20T22:37:35.321Z,13.07
2019-04-20T22:40:05.095Z,12.30
2019-04-20T22:42:41.487Z,13.73
2019-04-20T22:45:09.760Z,9.97
2019-04-20T22:47:36.053Z,11.33
2019-04-20T22:50:20.360Z,12.43
2019-04-20T22:52:44.410Z,17.00
2019-04-20T22:55:27.037Z,13.50
2019-04-20T22:57:48.685Z,10.13
2019-04-20T23:00:14.529Z,13.70
2019-04-20T23:02:40.812Z,16.33
2019-04-20T23:05:10.857Z,14.20
2019-04-20T23:07:40.789Z,13.10
2019-04-20T23:10:09.684Z,11.67
2019-04-20T23:12:40.030Z,13.80
2019-04-20T23:15:10.347Z,15.10
2019-04-20T23:17:43.372Z,13.07
2019-04-20T23:20:17.940Z,12.83
2019-04-20T23:22:43.972Z,12.60
2019-04-20T23:25:11.281Z,12.70
2019-04-20T23:27:41.781Z,11.67
2019-04-20T23:30:19.365Z,10.40
2019-04-20T23:32:42.175Z,9.40
2019-04-20T23:35:18.141Z,10.87
2019-04-20T23:37:43.851Z,10.33
2019-04-20T23:40:16.426Z,8.50
2019-04-20T23:42:49.534Z,9.97
2019-04-20T23:45:39.473Z,10.83
2019-04-20T23:48:12.177Z,8.40
2019-04-20T23:50:54.413Z,8.90
2019-04-20T23:53:29.708Z,13.07
2019-04-20T23:55:41.598Z,11.17
2019-04-20T23:58:12.260Z,10.63
